Time;durP1;ratioP1;P1;durP2;ratioP2;P2;SDS_P1;SDS_P2;PMS_P1;PMS_P2;Temp;Humidity;BMP_temperature;BMP_pressure;BME280_temperature;BME280_humidity;BME280_pressure;Samples;Min_cycle;Max_cycle;Signal;HPM_P1;HPM_P2
2020/12/21 00:01:17;;;;;;;33.65;12.40;;;3.30;91.30;;;;;;5036116;28;20053;-65
2020/12/21 00:03:44;;;;;;;35.13;12.95;;;3.30;91.30;;;;;;5042298;28;20112;-66
2020/12/21 00:06:14;;;;;;;33.55;13.00;;;3.30;91.30;;;;;;5034627;28;20044;-66
2020/12/21 00:08:40;;;;;;;39.05;14.55;;;3.30;91.20;;;;;;5040823;28;20044;-66
2020/12/21 00:11:05;;;;;;;48.53;19.23;;;3.30;91.20;;;;;;5037156;28;20028;-66
2020/12/21 00:13:31;;;;;;;37.53;15.07;;;3.30;91.30;;;;;;5035186;28;20021;-66
2020/12/21 00:15:57;;;;;;;33.50;12.98;;;3.30;91.20;;;;;;5038480;28;20033;-66
2020/12/21 00:18:24;;;;;;;33.20;12.00;;;3.30;91.20;;;;;;5034608;28;20025;-66
2020/12/21 00:20:49;;;;;;;31.40;11.27;;;3.20;91.20;;;;;;5040340;28;20048;-66
2020/12/21 00:23:16;;;;;;;23.92;11.43;;;3.20;91.20;;;;;;5037469;28;20088;-66
2020/12/21 00:25:42;;;;;;;33.25;12.05;;;3.30;91.40;;;;;;5049012;28;20073;-67
2020/12/21 00:28:08;;;;;;;38.47;13.75;;;3.30;91.30;;;;;;5040444;28;20502;-68
2020/12/21 00:30:34;;;;;;;32.95;12.35;;;3.30;91.20;;;;;;5047087;28;20028;-66
2020/12/21 00:33:00;;;;;;;29.40;12.05;;;3.20;91.10;;;;;;5044590;28;20475;-67
2020/12/21 00:35:27;;;;;;;27.60;10.30;;;3.20;91.40;;;;;;5035929;28;20032;-66
2020/12/21 00:37:53;;;;;;;31.63;11.93;;;3.20;91.10;;;;;;5033624;28;20048;-66
2020/12/21 00:40:18;;;;;;;34.83;11.95;;;3.10;91.20;;;;;;5043606;28;20021;-66
2020/12/21 00:42:45;;;;;;;37.55;13.60;;;3.10;91.20;;;;;;5042690;28;20033;-66
2020/12/21 00:45:10;;;;;;;34.88;12.05;;;3.10;91.20;;;;;;5036544;28;20029;-66
2020/12/21 00:47:37;;;;;;;27.30;11.98;;;3.10;91.10;;;;;;5033669;28;20029;-66
2020/12/21 00:50:03;;;;;;;38.70;13.73;;;3.10;91.30;;;;;;5035699;28;20021;-66
2020/12/21 00:52:29;;;;;;;28.92;11.95;;;3.10;91.20;;;;;;5035630;28;20033;-66
2020/12/21 00:54:55;;;;;;;32.38;13.10;;;3.10;91.20;;;;;;5034909;28;20025;-66
2020/12/21 00:57:21;;;;;;;30.27;13.20;;;3.10;91.30;;;;;;5033750;28;20096;-67
2020/12/21 00:59:46;;;;;;;29.77;13.40;;;3.10;91.20;;;;;;5041129;28;20120;-66
2020/12/21 01:02:12;;;;;;;31.67;14.05;;;3.00;91.20;;;;;;5047606;28;20045;-66
2020/12/21 01:04:38;;;;;;;29.88;13.35;;;3.00;91.20;;;;;;5046605;28;20116;-66
2020/12/21 01:07:04;;;;;;;26.40;11.73;;;3.10;91.30;;;;;;5046591;28;20036;-66
2020/12/21 01:09:30;;;;;;;23.58;10.88;;;3.00;91.20;;;;;;5051950;28;20463;-66
2020/12/21 01:11:56;;;;;;;23.58;11.20;;;3.00;91.30;;;;;;5044117;28;20044;-66
2020/12/21 01:14:22;;;;;;;26.20;10.30;;;3.00;91.30;;;;;;5034126;28;20026;-66
2020/12/21 01:16:47;;;;;;;22.20;10.07;;;3.00;91.30;;;;;;5050532;28;20037;-67
2020/12/21 01:19:13;;;;;;;25.05;10.70;;;3.00;91.30;;;;;;5044596;28;20025;-66
2020/12/21 01:21:39;;;;;;;29.13;11.18;;;3.00;91.30;;;;;;5037493;28;20115;-66
2020/12/21 01:24:05;;;;;;;24.35;10.60;;;3.00;91.40;;;;;;5041650;28;20036;-66
2020/12/21 01:26:31;;;;;;;26.27;11.05;;;3.00;91.30;;;;;;5040243;28;20057;-68
2020/12/21 01:28:57;;;;;;;26.02;11.68;;;3.00;91.30;;;;;;5043424;28;20051;-66
2020/12/21 01:31:24;;;;;;;26.73;10.80;;;3.10;91.30;;;;;;5050507;28;20083;-66
2020/12/21 01:33:50;;;;;;;26.48;11.00;;;3.10;91.30;;;;;;5044796;28;20033;-65
2020/12/21 01:36:17;;;;;;;31.80;12.15;;;3.00;91.30;;;;;;5043446;28;20057;-66
2020/12/21 01:38:43;;;;;;;24.48;11.57;;;3.00;91.20;;;;;;5049751;28;20029;-66
2020/12/21 01:41:09;;;;;;;25.17;10.85;;;3.00;91.20;;;;;;5045102;28;20435;-66
2020/12/21 01:43:35;;;;;;;29.05;11.40;;;3.00;91.20;;;;;;5037631;28;20036;-66
2020/12/21 01:46:12;;;;;;;28.70;11.88;;;3.00;91.20;;;;;;5048838;28;20490;-66
2020/12/21 01:48:39;;;;;;;27.05;11.13;;;3.00;91.20;;;;;;5048886;28;20116;-67
2020/12/21 01:51:06;;;;;;;27.90;11.40;;;3.00;91.30;;;;;;5051914;28;20099;-66
2020/12/21 01:53:37;;;;;;;27.08;11.77;;;3.00;91.30;;;;;;5043445;28;20033;-66
2020/12/21 01:56:04;;;;;;;30.42;12.15;;;3.00;91.40;;;;;;5045802;28;20017;-66
2020/12/21 01:58:31;;;;;;;32.35;12.18;;;3.00;91.40;;;;;;5046318;28;20091;-65
2020/12/21 02:01:00;;;;;;;51.55;12.88;;;3.00;91.30;;;;;;5037735;28;20123;-65
2020/12/21 02:03:26;;;;;;;54.97;12.07;;;3.00;91.30;;;;;;5050759;28;20168;-66
2020/12/21 02:05:52;;;;;;;47.97;11.82;;;3.00;91.30;;;;;;5048498;28;20029;-65
2020/12/21 02:08:18;;;;;;;55.35;13.13;;;2.90;91.20;;;;;;5043934;28;20029;-66
2020/12/21 02:10:44;;;;;;;56.33;12.40;;;3.00;91.30;;;;;;5043392;28;20036;-66
2020/12/21 02:13:09;;;;;;;76.10;13.05;;;3.00;91.30;;;;;;5048795;28;20492;-65
2020/12/21 02:15:35;;;;;;;38.45;11.80;;;2.90;91.20;;;;;;5042844;28;20025;-65
2020/12/21 02:18:01;;;;;;;56.55;14.30;;;3.00;91.30;;;;;;5037284;28;20020;-66
2020/12/21 02:20:32;;;;;;;51.72;13.27;;;2.90;91.30;;;;;;5054225;28;20467;-66
2020/12/21 02:22:58;;;;;;;59.20;13.65;;;2.90;91.20;;;;;;5053652;28;20024;-65
2020/12/21 02:25:23;;;;;;;38.13;14.05;;;2.90;91.30;;;;;;5054427;28;20040;-65
2020/12/21 02:27:49;;;;;;;43.50;13.25;;;2.90;91.40;;;;;;5048909;28;20384;-65
2020/12/21 02:30:15;;;;;;;58.08;15.15;;;2.90;91.40;;;;;;5054133;28;20071;-65
2020/12/21 02:32:42;;;;;;;39.95;13.63;;;2.90;91.30;;;;;;5042506;28;20503;-66
2020/12/21 02:35:07;;;;;;;52.97;15.15;;;2.90;91.40;;;;;;5044727;28;20025;-66
2020/12/21 02:37:34;;;;;;;49.95;13.10;;;2.90;91.40;;;;;;5053199;28;20120;-66
2020/12/21 02:39:59;;;;;;;48.58;15.23;;;2.90;91.40;;;;;;5053184;28;20031;-65
2020/12/21 02:42:25;;;;;;;88.72;20.20;;;2.90;91.40;;;;;;5053196;28;20103;-65
2020/12/21 02:44:51;;;;;;;47.80;17.33;;;2.90;91.40;;;;;;5053241;28;20021;-68
2020/12/21 02:47:16;;;;;;;86.43;24.00;;;2.90;91.50;;;;;;5055581;28;20036;-65
2020/12/21 02:49:42;;;;;;;70.07;24.20;;;2.90;91.50;;;;;;5045698;28;20025;-63
2020/12/21 02:52:08;;;;;;;99.70;25.88;;;2.90;91.40;;;;;;5050263;28;20459;-64
2020/12/21 02:54:33;;;;;;;78.55;21.55;;;2.90;91.40;;;;;;5040956;28;20103;-63
2020/12/21 02:56:59;;;;;;;79.45;20.90;;;2.90;91.50;;;;;;5040126;28;20033;-63
2020/12/21 02:59:25;;;;;;;81.97;20.88;;;2.90;91.50;;;;;;5043179;28;20074;-63
2020/12/21 03:01:50;;;;;;;73.13;17.75;;;2.90;91.50;;;;;;5051307;28;20525;-63
2020/12/21 03:04:16;;;;;;;92.32;17.27;;;2.90;91.50;;;;;;5043458;28;20043;-64
2020/12/21 03:06:42;;;;;;;110.65;19.88;;;2.90;91.50;;;;;;5047892;28;20037;-64
2020/12/21 03:09:08;;;;;;;177.25;26.42;;;2.90;91.50;;;;;;5042556;28;20104;-65
2020/12/21 03:11:34;;;;;;;152.05;25.02;;;2.90;91.50;;;;;;5052444;28;20025;-64
2020/12/21 03:13:59;;;;;;;142.40;24.40;;;2.90;91.50;;;;;;5046161;28;20029;-64
2020/12/21 03:16:25;;;;;;;149.20;25.85;;;2.90;91.50;;;;;;5043322;28;20090;-64
2020/12/21 03:18:51;;;;;;;138.45;23.38;;;2.90;91.40;;;;;;5054241;28;20548;-65
2020/12/21 03:21:17;;;;;;;157.75;23.77;;;2.90;91.50;;;;;;5040539;28;20036;-66
2020/12/21 03:23:43;;;;;;;95.05;21.67;;;2.90;91.40;;;;;;5041170;28;20032;-64
2020/12/21 03:26:09;;;;;;;194.65;29.58;;;2.90;91.30;;;;;;5052494;28;20376;-66
2020/12/21 03:28:35;;;;;;;126.93;25.60;;;2.80;91.40;;;;;;5045955;28;20029;-64
2020/12/21 03:31:01;;;;;;;164.40;28.90;;;2.80;91.50;;;;;;5042098;28;20032;-64
2020/12/21 03:33:27;;;;;;;114.45;24.02;;;2.80;91.40;;;;;;5039974;28;20025;-65
2020/12/21 03:35:53;;;;;;;165.60;27.55;;;2.80;91.30;;;;;;5044121;28;20129;-64
2020/12/21 03:38:18;;;;;;;150.75;30.55;;;2.80;91.20;;;;;;5042593;28;20036;-65
2020/12/21 03:40:44;;;;;;;122.57;23.58;;;2.70;91.10;;;;;;5039208;28;20024;-64
2020/12/21 03:43:10;;;;;;;85.55;20.15;;;2.70;91.10;;;;;;5049315;28;20497;-65
2020/12/21 03:45:35;;;;;;;122.53;20.38;;;2.70;91.20;;;;;;5053848;28;20033;-64
2020/12/21 03:48:01;;;;;;;91.63;20.75;;;2.60;91.10;;;;;;5047038;28;20025;-64
2020/12/21 03:50:27;;;;;;;78.75;20.90;;;2.50;91.00;;;;;;5038947;28;20460;-65
2020/12/21 03:52:53;;;;;;;62.92;18.95;;;2.50;91.10;;;;;;5052228;28;20032;-65
2020/12/21 03:55:18;;;;;;;75.15;22.85;;;2.40;91.00;;;;;;5043888;28;20037;-64
2020/12/21 03:57:44;;;;;;;71.30;28.75;;;2.40;90.90;;;;;;5050317;28;20380;-64
2020/12/21 04:00:10;;;;;;;67.32;28.20;;;2.30;90.90;;;;;;5050460;28;20036;-65
2020/12/21 04:02:37;;;;;;;76.95;31.42;;;2.20;90.90;;;;;;5052506;28;20076;-64
2020/12/21 04:05:07;;;;;;;82.63;33.75;;;2.10;91.00;;;;;;5048378;28;20022;-65
2020/12/21 04:07:36;;;;;;;86.72;31.85;;;2.10;91.20;;;;;;5038525;28;20116;-65
2020/12/21 04:10:07;;;;;;;80.97;33.30;;;2.10;91.20;;;;;;5045149;28;20032;-64
2020/12/21 04:12:34;;;;;;;86.00;34.22;;;2.10;91.20;;;;;;5050441;28;20041;-65
2020/12/21 04:15:01;;;;;;;93.10;34.70;;;2.10;91.30;;;;;;5047925;28;20043;-64
2020/12/21 04:17:27;;;;;;;95.28;34.13;;;2.10;91.40;;;;;;5037820;28;20034;-64
2020/12/21 04:19:53;;;;;;;76.50;24.85;;;2.10;91.40;;;;;;5047405;28;20380;-66
2020/12/21 04:22:18;;;;;;;74.15;22.98;;;2.10;91.30;;;;;;5044532;28;20021;-64
2020/12/21 04:24:44;;;;;;;95.65;24.38;;;2.10;91.30;;;;;;5039042;28;20033;-64
2020/12/21 04:27:10;;;;;;;142.82;37.15;;;2.10;91.30;;;;;;5046499;28;20103;-63
2020/12/21 04:29:36;;;;;;;94.07;29.40;;;2.00;91.30;;;;;;5046038;28;20102;-64
2020/12/21 04:32:02;;;;;;;77.78;26.58;;;2.00;91.40;;;;;;5052688;28;20086;-64
2020/12/21 04:34:28;;;;;;;82.63;26.63;;;2.00;91.60;;;;;;5050542;28;20033;-64
2020/12/21 04:36:54;;;;;;;70.90;25.27;;;2.00;91.40;;;;;;5039232;28;20108;-65
2020/12/21 04:39:23;;;;;;;73.15;24.27;;;1.90;91.40;;;;;;5042998;28;20082;-65
2020/12/21 04:41:52;;;;;;;60.40;23.95;;;2.00;91.50;;;;;;5037057;28;20455;-68
2020/12/21 04:44:20;;;;;;;53.58;20.88;;;2.00;91.60;;;;;;5040832;28;20029;-65
2020/12/21 04:46:47;;;;;;;71.50;24.45;;;2.00;91.60;;;;;;5037853;28;20051;-64
2020/12/21 04:49:15;;;;;;;63.45;24.08;;;2.00;91.60;;;;;;5045729;28;20117;-63
2020/12/21 04:51:43;;;;;;;66.45;24.50;;;1.90;91.50;;;;;;5045503;28;20406;-64
2020/12/21 04:54:09;;;;;;;50.97;19.75;;;2.00;91.60;;;;;;5044863;28;20115;-63
2020/12/21 04:56:36;;;;;;;61.95;22.92;;;2.00;91.50;;;;;;5050712;28;20107;-63
2020/12/21 04:59:02;;;;;;;59.17;21.70;;;2.00;91.50;;;;;;5050409;28;20112;-63
2020/12/21 05:01:28;;;;;;;56.55;22.58;;;2.00;91.60;;;;;;5040587;28;20091;-64
2020/12/21 05:03:54;;;;;;;55.03;20.00;;;2.00;91.50;;;;;;5042059;28;20036;-63
2020/12/21 05:06:20;;;;;;;39.17;16.95;;;2.00;91.40;;;;;;5040709;28;20045;-64
2020/12/21 05:08:46;;;;;;;58.15;21.67;;;1.90;91.30;;;;;;5046203;28;20468;-66
2020/12/21 05:11:11;;;;;;;58.75;24.08;;;1.90;91.30;;;;;;5044570;28;20532;-64
2020/12/21 05:13:37;;;;;;;48.70;19.73;;;1.90;91.20;;;;;;5049260;28;20033;-63
2020/12/21 05:16:03;;;;;;;45.53;19.35;;;1.80;91.30;;;;;;5047748;28;20032;-64
2020/12/21 05:18:35;;;;;;;48.25;18.30;;;1.80;91.40;;;;;;5039769;28;20032;-64
2020/12/21 05:21:10;;;;;;;47.72;19.60;;;1.80;91.40;;;;;;5045616;28;20386;-64
2020/12/21 05:23:36;;;;;;;52.33;21.15;;;1.80;91.30;;;;;;5044099;28;20357;-63
2020/12/21 05:26:12;;;;;;;45.22;19.20;;;1.80;91.30;;;;;;5034104;28;20048;-66
2020/12/21 05:28:40;;;;;;;51.65;19.98;;;1.80;91.30;;;;;;5043038;28;20118;-64
2020/12/21 05:31:10;;;;;;;52.90;22.73;;;1.70;91.20;;;;;;5043315;28;20106;-65
2020/12/21 05:33:43;;;;;;;57.15;23.13;;;1.70;91.20;;;;;;5034748;28;20373;-63
2020/12/21 05:36:11;;;;;;;54.55;23.02;;;1.70;91.10;;;;;;5045610;28;20503;-63
2020/12/21 05:38:39;;;;;;;49.13;19.95;;;1.60;91.10;;;;;;5047707;28;20028;-62
2020/12/21 05:41:16;;;;;;;74.93;25.45;;;1.60;91.10;;;;;;5041431;28;20532;-63
2020/12/21 05:43:43;;;;;;;58.22;20.42;;;1.60;91.20;;;;;;5037231;28;20036;-63
2020/12/21 05:46:09;;;;;;;51.03;19.52;;;1.60;91.20;;;;;;5038928;28;20026;-64
2020/12/21 05:48:37;;;;;;;49.83;19.63;;;1.50;91.00;;;;;;5043494;28;20091;-64
2020/12/21 05:51:04;;;;;;;44.03;17.52;;;1.50;91.00;;;;;;5049292;28;20103;-65
2020/12/21 05:53:35;;;;;;;45.53;17.80;;;1.40;91.00;;;;;;5045045;28;20037;-64
2020/12/21 05:56:02;;;;;;;42.20;17.35;;;1.40;91.00;;;;;;5049408;28;20101;-64
2020/12/21 05:58:33;;;;;;;47.03;19.67;;;1.40;91.00;;;;;;5040389;28;20103;-65
2020/12/21 06:01:01;;;;;;;40.63;17.75;;;1.40;91.20;;;;;;5045872;28;20120;-64
2020/12/21 06:03:37;;;;;;;48.40;20.33;;;1.40;91.20;;;;;;5044747;28;20036;-65
2020/12/21 06:06:06;;;;;;;;;;;1.40;91.10;;;;;;5051356;28;20035;-69
2020/12/21 06:08:34;;;;;;;31.60;13.15;;;1.30;90.90;;;;;;5051513;28;19909;-67
2020/12/21 06:11:11;;;;;;;45.13;18.00;;;1.30;90.70;;;;;;5049394;28;20115;-64
2020/12/21 06:13:40;;;;;;;39.95;16.95;;;1.20;90.80;;;;;;5039607;28;20030;-67
2020/12/21 06:16:07;;;;;;;64.90;24.55;;;1.20;90.80;;;;;;5035877;28;20033;-69
2020/12/21 06:18:33;;;;;;;91.55;33.92;;;1.10;90.90;;;;;;5037904;28;20033;-68
2020/12/21 06:20:59;;;;;;;69.93;28.33;;;1.10;90.90;;;;;;5041557;28;20035;-67
2020/12/21 06:23:32;;;;;;;57.22;22.25;;;1.10;91.00;;;;;;5041281;28;20024;-68
2020/12/21 06:26:11;;;;;;;32.67;13.93;;;1.10;91.10;;;;;;5046748;28;20071;-68
2020/12/21 06:28:38;;;;;;;39.95;19.27;;;1.20;90.90;;;;;;5044872;28;20055;-68
2020/12/21 06:31:19;;;;;;;28.92;14.82;;;1.10;90.60;;;;;;5047770;28;20108;-68
2020/12/21 06:33:46;;;;;;;18.17;10.05;;;1.10;90.60;;;;;;5043176;28;20037;-67
2020/12/21 06:36:13;;;;;;;38.95;19.52;;;1.10;90.50;;;;;;5031587;28;20049;-69
2020/12/21 06:38:47;;;;;;;38.13;16.42;;;1.00;90.40;;;;;;5040526;28;20037;-67
2020/12/21 06:41:17;;;;;;;26.60;12.63;;;1.00;90.50;;;;;;5044066;28;20086;-68
2020/12/21 06:43:57;;;;;;;27.58;13.32;;;0.90;90.30;;;;;;5042005;28;20044;-66
2020/12/21 06:46:24;;;;;;;38.78;18.83;;;0.90;90.10;;;;;;5031596;28;20087;-66
2020/12/21 06:49:03;;;;;;;58.47;26.65;;;0.80;90.30;;;;;;5038511;28;20037;-68
2020/12/21 06:51:29;;;;;;;64.22;26.08;;;0.90;90.50;;;;;;5047748;28;20494;-66
2020/12/21 06:54:00;;;;;;;45.42;22.50;;;0.90;90.40;;;;;;5037229;28;20025;-67
2020/12/21 06:56:26;;;;;;;50.97;23.63;;;0.90;90.40;;;;;;5034493;28;20060;-67
2020/12/21 06:59:01;;;;;;;50.75;24.35;;;0.90;90.30;;;;;;5035192;28;20104;-68
2020/12/21 07:01:28;;;;;;;58.58;25.90;;;0.90;90.30;;;;;;5036337;28;20497;-70
2020/12/21 07:03:55;;;;;;;46.20;22.23;;;0.90;90.20;;;;;;5037542;28;20091;-67
2020/12/21 07:06:21;;;;;;;29.30;14.00;;;0.90;90.10;;;;;;5036371;28;20037;-68
2020/12/21 07:08:49;;;;;;;32.92;14.82;;;0.80;90.10;;;;;;5041650;28;20022;-67
2020/12/21 07:11:20;;;;;;;35.50;16.58;;;0.80;90.10;;;;;;5044710;28;20025;-67
2020/12/21 07:13:48;;;;;;;37.60;18.05;;;0.80;90.10;;;;;;5040711;28;20025;-68
2020/12/21 07:16:18;;;;;;;38.90;16.25;;;0.80;90.10;;;;;;5040492;28;20025;-67
2020/12/21 07:18:48;;;;;;;38.83;17.02;;;0.80;90.20;;;;;;5043015;28;20112;-67
2020/12/21 07:21:14;;;;;;;35.80;17.05;;;0.90;90.40;;;;;;5041045;28;20113;-69
2020/12/21 07:23:41;;;;;;;33.65;15.52;;;0.90;90.50;;;;;;5047809;28;20116;-70
2020/12/21 07:26:09;;;;;;;34.80;17.73;;;1.00;90.50;;;;;;5041395;28;20078;-72
2020/12/21 07:28:35;;;;;;;43.20;20.55;;;1.10;90.60;;;;;;5047985;28;20091;-79
2020/12/21 07:31:27;;;;;;;34.50;15.15;;;1.10;90.60;;;;;;5036967;28;20418;-68
2020/12/21 07:33:54;;;;;;;37.88;17.20;;;1.10;90.20;;;;;;5046717;28;20546;-74
2020/12/21 07:36:34;;;;;;;31.35;15.65;;;1.10;89.90;;;;;;5050877;28;20036;-68
2020/12/21 07:39:12;;;;;;;35.35;16.08;;;1.10;90.00;;;;;;5038942;28;20506;-69
2020/12/21 07:41:51;;;;;;;49.88;20.77;;;1.10;90.10;;;;;;5048934;28;20025;-66
2020/12/21 07:44:40;;;;;;;78.07;30.45;;;1.20;90.20;;;;;;5054016;28;20045;-65
2020/12/21 07:47:21;;;;;;;54.20;19.35;;;1.20;90.30;;;;;;5042352;28;20658;-67
2020/12/21 07:49:47;;;;;;;40.80;16.13;;;1.30;89.90;;;;;;5038893;28;20440;-67
2020/12/21 07:52:15;;;;;;;33.40;12.43;;;1.30;89.80;;;;;;5054234;28;20048;-71
2020/12/21 07:54:45;;;;;;;37.67;16.10;;;1.30;89.70;;;;;;5048292;28;20032;-67
2020/12/21 07:57:17;;;;;;;49.50;18.65;;;1.20;89.20;;;;;;5046860;28;20478;-65
2020/12/21 07:59:42;;;;;;;21.27;10.13;;;1.20;89.40;;;;;;5033633;28;20028;-67
2020/12/21 08:02:09;;;;;;;19.75;10.13;;;1.20;89.20;;;;;;5044499;28;20049;-67
2020/12/21 08:04:35;;;;;;;27.13;11.38;;;1.20;88.90;;;;;;5043475;28;20033;-70
2020/12/21 08:07:12;;;;;;;24.98;11.45;;;1.20;89.10;;;;;;5046143;28;20045;-67
2020/12/21 08:09:39;;;;;;;20.50;10.00;;;1.10;88.70;;;;;;5046490;28;20037;-66
2020/12/21 08:12:09;;;;;;;31.40;14.82;;;1.10;88.70;;;;;;5048657;28;20072;-67
2020/12/21 08:14:35;;;;;;;37.03;17.73;;;1.10;88.60;;;;;;5048928;28;20033;-67
2020/12/21 08:17:19;;;;;;;34.35;16.90;;;1.10;88.90;;;;;;5051612;28;20486;-67
2020/12/21 08:19:55;;;;;;;29.13;13.60;;;1.10;89.10;;;;;;5050067;28;20510;-67
2020/12/21 08:22:22;;;;;;;30.98;15.23;;;1.10;89.00;;;;;;5050251;28;20434;-67
2020/12/21 08:25:09;;;;;;;23.60;12.25;;;1.10;88.90;;;;;;5051772;28;20025;-67
2020/12/21 08:27:49;;;;;;;37.45;16.88;;;1.20;89.20;;;;;;5052445;28;20036;-67
2020/12/21 08:30:18;;;;;;;31.85;15.90;;;1.20;89.30;;;;;;5054305;28;20017;-66
2020/12/21 08:32:44;;;;;;;33.47;15.20;;;1.30;89.00;;;;;;5054375;28;20048;-66
2020/12/21 08:35:11;;;;;;;24.05;11.80;;;1.20;88.70;;;;;;5052846;28;20090;-65
2020/12/21 08:37:38;;;;;;;21.70;10.82;;;1.20;88.50;;;;;;5052548;28;20140;-66
2020/12/21 08:40:15;;;;;;;24.77;10.68;;;1.20;88.50;;;;;;5054103;28;20028;-65
2020/12/21 08:42:41;;;;;;;24.95;13.27;;;1.20;88.20;;;;;;5053049;28;20021;-66
2020/12/21 08:45:08;;;;;;;34.28;17.27;;;1.20;88.10;;;;;;5052644;28;20427;-65
2020/12/21 08:47:35;;;;;;;39.67;19.25;;;1.20;88.20;;;;;;5052422;28;20044;-66
2020/12/21 08:50:04;;;;;;;28.35;13.73;;;1.20;88.10;;;;;;5053733;28;20025;-66
2020/12/21 08:52:29;;;;;;;24.75;12.77;;;1.10;87.80;;;;;;5053697;28;20477;-66
2020/12/21 08:54:55;;;;;;;31.77;16.55;;;1.10;87.60;;;;;;5054007;28;20025;-67
2020/12/21 08:57:21;;;;;;;44.63;19.92;;;1.10;87.60;;;;;;5053364;28;20021;-67
2020/12/21 08:59:46;;;;;;;46.70;24.00;;;1.00;87.50;;;;;;5053828;28;20459;-67
2020/12/21 09:02:12;;;;;;;31.52;15.50;;;1.00;87.90;;;;;;5052444;28;20048;-67
2020/12/21 09:04:38;;;;;;;18.63;9.10;;;1.10;87.90;;;;;;5044739;28;20068;-65
2020/12/21 09:07:04;;;;;;;22.55;11.10;;;1.00;87.80;;;;;;5034412;28;20033;-66
2020/12/21 09:09:29;;;;;;;17.33;9.52;;;1.10;87.90;;;;;;5053738;28;20029;-65
2020/12/21 09:11:55;;;;;;;26.25;12.80;;;1.10;87.80;;;;;;5053476;28;20401;-66
2020/12/21 09:14:24;;;;;;;33.20;13.80;;;1.10;87.60;;;;;;5053671;28;20056;-65
2020/12/21 09:16:53;;;;;;;27.98;12.45;;;1.00;87.00;;;;;;5053439;28;20044;-65
2020/12/21 09:19:19;;;;;;;36.50;16.70;;;1.00;86.70;;;;;;5053338;28;20498;-65
2020/12/21 09:21:45;;;;;;;44.05;18.08;;;0.90;86.40;;;;;;5052243;28;20385;-67
2020/12/21 09:24:11;;;;;;;47.28;20.92;;;0.90;86.40;;;;;;5052079;28;20032;-66
2020/12/21 09:26:37;;;;;;;39.53;20.77;;;0.80;86.60;;;;;;5037457;28;20021;-65
2020/12/21 09:29:03;;;;;;;19.33;10.90;;;0.80;86.70;;;;;;5052165;28;20111;-66
2020/12/21 09:31:29;;;;;;;23.58;11.55;;;0.80;86.30;;;;;;5051556;28;20052;-66
2020/12/21 09:33:55;;;;;;;23.60;11.35;;;0.80;86.50;;;;;;5051955;28;20494;-66
2020/12/21 09:36:21;;;;;;;15.70;8.63;;;0.70;86.50;;;;;;5051850;28;20028;-71
2020/12/21 09:38:48;;;;;;;18.48;9.90;;;0.70;86.40;;;;;;5052254;28;20059;-65
2020/12/21 09:41:17;;;;;;;24.85;13.32;;;0.70;86.00;;;;;;5052246;28;20418;-65
2020/12/21 09:43:44;;;;;;;27.65;14.32;;;0.60;85.80;;;;;;5051335;28;20024;-65
2020/12/21 09:46:11;;;;;;;22.08;12.80;;;0.50;85.80;;;;;;5052898;28;20059;-66
2020/12/21 09:48:38;;;;;;;27.38;12.55;;;0.50;85.70;;;;;;5051325;28;20529;-66
2020/12/21 09:51:04;;;;;;;22.83;12.38;;;0.40;85.70;;;;;;5051858;28;20355;-66
2020/12/21 09:53:30;;;;;;;23.17;10.95;;;0.40;85.60;;;;;;5037553;28;20034;-67
2020/12/21 09:55:55;;;;;;;28.40;13.98;;;0.30;85.70;;;;;;5052900;28;20032;-66
2020/12/21 09:58:21;;;;;;;24.15;10.60;;;0.30;85.50;;;;;;5052947;28;20036;-66
2020/12/21 10:00:47;;;;;;;17.30;10.10;;;0.20;85.50;;;;;;5051383;28;20029;-66
2020/12/21 10:03:12;;;;;;;15.55;8.80;;;0.20;85.60;;;;;;5053362;28;20033;-66
2020/12/21 10:05:38;;;;;;;20.58;14.15;;;0.10;85.40;;;;;;5052378;28;20132;-66
2020/12/21 10:08:04;;;;;;;12.38;7.63;;;0.10;85.20;;;;;;5052728;28;20522;-66
2020/12/21 10:10:29;;;;;;;16.23;8.35;;;0.00;85.30;;;;;;5052931;28;20032;-66
2020/12/21 10:12:55;;;;;;;14.65;8.90;;;0.00;85.40;;;;;;5052579;28;20032;-66
2020/12/21 10:15:21;;;;;;;14.45;8.50;;;0.00;85.40;;;;;;5051354;28;20467;-67
2020/12/21 10:17:46;;;;;;;20.60;10.23;;;-0.10;85.40;;;;;;5052485;28;20068;-66
2020/12/21 10:20:12;;;;;;;20.38;11.18;;;0.00;85.70;;;;;;5052897;28;20017;-66
2020/12/21 10:22:38;;;;;;;38.95;18.58;;;0.00;85.80;;;;;;5052997;28;20029;-66
2020/12/21 10:25:03;;;;;;;20.02;10.48;;;0.00;85.80;;;;;;5052598;28;20032;-66
2020/12/21 10:27:30;;;;;;;27.58;13.80;;;0.00;85.70;;;;;;5052330;28;20037;-66
2020/12/21 10:29:56;;;;;;;17.60;10.02;;;0.00;85.40;;;;;;5052401;28;20029;-66
2020/12/21 10:32:21;;;;;;;15.90;9.27;;;0.00;85.30;;;;;;5052291;28;20043;-66
2020/12/21 10:34:47;;;;;;;17.52;9.35;;;0.00;85.50;;;;;;5052427;28;20029;-66
2020/12/21 10:37:13;;;;;;;19.13;9.90;;;0.00;85.50;;;;;;5051399;28;20079;-66
2020/12/21 10:39:38;;;;;;;17.83;8.93;;;0.00;85.60;;;;;;5053754;28;20553;-65
2020/12/21 10:42:06;;;;;;;16.10;8.50;;;0.00;85.40;;;;;;5054642;28;20379;-66
2020/12/21 10:44:32;;;;;;;11.50;7.32;;;0.00;85.30;;;;;;5056288;28;20375;-65
2020/12/21 10:46:58;;;;;;;12.38;7.72;;;0.00;84.50;;;;;;5055904;28;20040;-65
2020/12/21 10:49:24;;;;;;;18.02;10.32;;;-0.10;84.50;;;;;;5056076;28;20032;-65
2020/12/21 10:51:50;;;;;;;18.58;10.93;;;0.00;85.00;;;;;;5054897;28;20029;-65
2020/12/21 10:54:16;;;;;;;12.60;7.85;;;0.00;85.00;;;;;;5056139;28;20024;-66
2020/12/21 10:56:41;;;;;;;29.15;13.55;;;0.00;84.80;;;;;;5056129;28;20090;-66
2020/12/21 10:59:07;;;;;;;22.00;10.13;;;0.00;84.80;;;;;;5055699;28;20451;-66
2020/12/21 11:01:33;;;;;;;11.75;6.85;;;-0.10;84.50;;;;;;5054402;28;20052;-65
2020/12/21 11:03:58;;;;;;;16.50;10.50;;;-0.10;84.20;;;;;;5055807;28;20025;-65
2020/12/21 11:06:25;;;;;;;13.23;9.02;;;-0.10;84.10;;;;;;5055996;28;20475;-66
2020/12/21 11:08:52;;;;;;;21.15;9.65;;;-0.10;84.20;;;;;;5055599;28;20033;-66
2020/12/21 11:11:28;;;;;;;11.75;7.57;;;-0.20;84.00;;;;;;5055723;28;20048;-66
2020/12/21 11:13:54;;;;;;;14.80;7.72;;;-0.20;84.10;;;;;;5055328;28;20025;-66
2020/12/21 11:16:21;;;;;;;25.33;14.57;;;-0.20;84.00;;;;;;5054447;28;20387;-66
2020/12/21 11:18:47;;;;;;;64.15;29.58;;;-0.20;84.10;;;;;;5054566;28;20143;-66
2020/12/21 11:21:13;;;;;;;24.25;11.45;;;-0.20;84.20;;;;;;5054284;28;20434;-66
2020/12/21 11:23:40;;;;;;;20.15;12.25;;;-0.20;83.90;;;;;;5054410;28;20119;-66
2020/12/21 11:26:06;;;;;;;19.63;11.50;;;-0.20;83.70;;;;;;5054455;28;20040;-66
2020/12/21 11:28:32;;;;;;;20.52;9.88;;;-0.30;83.60;;;;;;5055221;28;20029;-67
2020/12/21 11:31:04;;;;;;;14.13;7.90;;;-0.30;84.00;;;;;;5055559;28;20075;-66
2020/12/21 11:33:30;;;;;;;16.50;8.95;;;-0.20;84.00;;;;;;5053931;28;20094;-67
2020/12/21 11:35:56;;;;;;;13.63;7.75;;;-0.30;83.60;;;;;;5055426;28;20033;-66
2020/12/21 11:38:23;;;;;;;19.30;11.20;;;-0.30;83.80;;;;;;5055118;28;20057;-66
2020/12/21 11:40:49;;;;;;;33.35;19.73;;;-0.30;84.10;;;;;;5054023;28;20029;-66
2020/12/21 11:43:14;;;;;;;28.55;15.40;;;-0.30;83.90;;;;;;5054089;28;20028;-66
2020/12/21 11:45:41;;;;;;;20.92;11.30;;;-0.20;84.00;;;;;;5054913;28;20471;-66
2020/12/21 11:48:07;;;;;;;26.38;13.77;;;-0.20;83.90;;;;;;5053962;28;20029;-66
2020/12/21 11:50:32;;;;;;;22.13;12.07;;;-0.20;83.70;;;;;;5054957;28;20025;-66
2020/12/21 11:52:58;;;;;;;23.88;13.35;;;-0.20;83.70;;;;;;5054974;28;20466;-66
2020/12/21 11:55:24;;;;;;;51.88;30.70;;;-0.30;83.30;;;;;;5054192;28;20025;-67
2020/12/21 11:57:49;;;;;;;65.03;34.22;;;-0.30;83.50;;;;;;5055570;28;20094;-67
2020/12/21 12:00:15;;;;;;;35.67;21.35;;;-0.30;83.80;;;;;;5053883;28;20471;-67
2020/12/21 12:02:41;;;;;;;34.25;19.48;;;-0.20;84.20;;;;;;5055360;28;20116;-66
2020/12/21 12:05:11;;;;;;;39.75;20.83;;;-0.20;84.20;;;;;;5053788;28;20024;-67
2020/12/21 12:07:37;;;;;;;14.48;8.30;;;-0.20;83.60;;;;;;5054352;28;20155;-67
2020/12/21 12:10:03;;;;;;;15.85;8.95;;;-0.20;83.00;;;;;;5053446;28;20111;-66
2020/12/21 12:12:29;;;;;;;19.92;10.60;;;-0.30;82.60;;;;;;5053281;28;20557;-66
2020/12/21 12:14:55;;;;;;;33.67;15.95;;;-0.40;82.70;;;;;;5053340;28;20063;-66
2020/12/21 12:17:21;;;;;;;15.50;9.32;;;-0.40;82.90;;;;;;5054400;28;20025;-66
2020/12/21 12:19:46;;;;;;;14.85;10.07;;;-0.40;82.80;;;;;;5054665;28;20025;-67
2020/12/21 12:22:12;;;;;;;14.73;10.52;;;-0.50;82.80;;;;;;5053194;28;20108;-66
2020/12/21 12:24:38;;;;;;;21.83;14.07;;;-0.50;82.80;;;;;;5054476;28;20025;-66
2020/12/21 12:27:04;;;;;;;48.22;19.88;;;-0.60;82.80;;;;;;5053163;28;20047;-66
2020/12/21 12:29:30;;;;;;;37.97;16.60;;;-0.60;83.10;;;;;;5052837;28;20033;-66
2020/12/21 12:31:55;;;;;;;33.42;16.58;;;-0.60;83.30;;;;;;5054269;28;20438;-66
2020/12/21 12:34:21;;;;;;;46.70;20.65;;;-0.60;84.00;;;;;;5054296;28;20021;-66
2020/12/21 12:36:48;;;;;;;29.50;16.27;;;-0.60;83.00;;;;;;5054162;28;20063;-66